sensor_id;sensor_type;location;lat;lon;timestamp;P1;durP1;ratioP1;P2;durP2;ratioP2
51030;SDS011;37058;41.442;23.240;2022-07-17T00:00:18;4.32;;;3.03;;
51030;SDS011;37058;41.442;23.240;2022-07-17T00:02:44;5.78;;;3.22;;
51030;SDS011;37058;41.442;23.240;2022-07-17T00:05:13;5.53;;;3.50;;
51030;SDS011;37058;41.442;23.240;2022-07-17T00:07:39;4.35;;;3.10;;
51030;SDS011;37058;41.442;23.240;2022-07-17T00:10:05;3.30;;;2.95;;
51030;SDS011;37058;41.442;23.240;2022-07-17T00:12:32;5.05;;;3.30;;
51030;SDS011;37058;41.442;23.240;2022-07-17T00:14:58;6.53;;;3.38;;
51030;SDS011;37058;41.442;23.240;2022-07-17T00:17:24;5.95;;;3.15;;
51030;SDS011;37058;41.442;23.240;2022-07-17T00:19:50;7.80;;;3.42;;
51030;SDS011;37058;41.442;23.240;2022-07-17T00:22:16;7.97;;;3.67;;
51030;SDS011;37058;41.442;23.240;2022-07-17T00:24:41;4.63;;;3.95;;
51030;SDS011;37058;41.442;23.240;2022-07-17T00:27:07;5.80;;;3.50;;
51030;SDS011;37058;41.442;23.240;2022-07-17T00:29:33;6.97;;;3.58;;
51030;SDS011;37058;41.442;23.240;2022-07-17T00:31:59;4.95;;;3.30;;
51030;SDS011;37058;41.442;23.240;2022-07-17T00:34:25;4.78;;;3.35;;
51030;SDS011;37058;41.442;23.240;2022-07-17T00:36:52;5.50;;;3.80;;
51030;SDS011;37058;41.442;23.240;2022-07-17T00:39:18;4.82;;;3.25;;
51030;SDS011;37058;41.442;23.240;2022-07-17T00:41:44;4.97;;;3.60;;
51030;SDS011;37058;41.442;23.240;2022-07-17T00:44:11;7.97;;;3.53;;
51030;SDS011;37058;41.442;23.240;2022-07-17T00:46:37;7.00;;;3.42;;
51030;SDS011;37058;41.442;23.240;2022-07-17T00:49:04;5.35;;;3.80;;
51030;SDS011;37058;41.442;23.240;2022-07-17T00:51:32;5.15;;;3.50;;
51030;SDS011;37058;41.442;23.240;2022-07-17T00:53:59;7.10;;;3.80;;
51030;SDS011;37058;41.442;23.240;2022-07-17T00:56:26;9.40;;;4.22;;
51030;SDS011;37058;41.442;23.240;2022-07-17T00:58:53;5.00;;;3.50;;
51030;SDS011;37058;41.442;23.240;2022-07-17T01:01:20;10.15;;;3.47;;
51030;SDS011;37058;41.442;23.240;2022-07-17T01:03:47;4.68;;;3.55;;
51030;SDS011;37058;41.442;23.240;2022-07-17T01:06:13;3.42;;;3.05;;
51030;SDS011;37058;41.442;23.240;2022-07-17T01:08:39;4.25;;;3.78;;
51030;SDS011;37058;41.442;23.240;2022-07-17T01:11:05;5.75;;;3.70;;
51030;SDS011;37058;41.442;23.240;2022-07-17T01:13:33;4.63;;;3.30;;
51030;SDS011;37058;41.442;23.240;2022-07-17T01:15:59;5.53;;;4.07;;
51030;SDS011;37058;41.442;23.240;2022-07-17T01:18:25;6.15;;;4.05;;
51030;SDS011;37058;41.442;23.240;2022-07-17T01:20:51;5.03;;;3.75;;
51030;SDS011;37058;41.442;23.240;2022-07-17T01:23:17;4.05;;;3.22;;
51030;SDS011;37058;41.442;23.240;2022-07-17T01:25:45;8.18;;;4.03;;
51030;SDS011;37058;41.442;23.240;2022-07-17T01:28:12;8.18;;;3.72;;
51030;SDS011;37058;41.442;23.240;2022-07-17T01:30:46;5.93;;;3.42;;
51030;SDS011;37058;41.442;23.240;2022-07-17T01:33:15;6.22;;;3.53;;
51030;SDS011;37058;41.442;23.240;2022-07-17T01:35:42;10.00;;;4.07;;
51030;SDS011;37058;41.442;23.240;2022-07-17T01:38:08;5.93;;;3.80;;
51030;SDS011;37058;41.442;23.240;2022-07-17T01:40:34;7.20;;;4.13;;
51030;SDS011;37058;41.442;23.240;2022-07-17T01:43:00;7.63;;;4.05;;
51030;SDS011;37058;41.442;23.240;2022-07-17T01:45:26;6.97;;;4.38;;
51030;SDS011;37058;41.442;23.240;2022-07-17T01:47:52;7.50;;;4.05;;
51030;SDS011;37058;41.442;23.240;2022-07-17T01:50:18;5.43;;;3.70;;
51030;SDS011;37058;41.442;23.240;2022-07-17T01:52:44;6.57;;;4.68;;
51030;SDS011;37058;41.442;23.240;2022-07-17T01:55:12;6.97;;;4.03;;
51030;SDS011;37058;41.442;23.240;2022-07-17T01:57:41;6.43;;;4.57;;
51030;SDS011;37058;41.442;23.240;2022-07-17T02:00:10;7.80;;;4.28;;
51030;SDS011;37058;41.442;23.240;2022-07-17T02:02:41;8.23;;;4.10;;
51030;SDS011;37058;41.442;23.240;2022-07-17T02:05:08;4.45;;;3.53;;
51030;SDS011;37058;41.442;23.240;2022-07-17T02:07:34;6.20;;;4.00;;
51030;SDS011;37058;41.442;23.240;2022-07-17T02:10:01;11.45;;;5.07;;
51030;SDS011;37058;41.442;23.240;2022-07-17T02:12:28;6.18;;;3.88;;
51030;SDS011;37058;41.442;23.240;2022-07-17T02:14:53;6.13;;;4.13;;
51030;SDS011;37058;41.442;23.240;2022-07-17T02:17:19;6.90;;;3.92;;
51030;SDS011;37058;41.442;23.240;2022-07-17T02:19:45;9.60;;;4.10;;
51030;SDS011;37058;41.442;23.240;2022-07-17T02:22:11;4.95;;;4.30;;
51030;SDS011;37058;41.442;23.240;2022-07-17T02:24:37;8.77;;;4.20;;
51030;SDS011;37058;41.442;23.240;2022-07-17T02:27:03;4.65;;;3.63;;
51030;SDS011;37058;41.442;23.240;2022-07-17T02:29:29;6.93;;;3.83;;
51030;SDS011;37058;41.442;23.240;2022-07-17T02:31:55;7.72;;;3.63;;
51030;SDS011;37058;41.442;23.240;2022-07-17T02:34:20;5.20;;;3.92;;
51030;SDS011;37058;41.442;23.240;2022-07-17T02:36:46;8.13;;;4.10;;
51030;SDS011;37058;41.442;23.240;2022-07-17T02:39:12;6.32;;;4.55;;
51030;SDS011;37058;41.442;23.240;2022-07-17T02:41:38;6.90;;;5.15;;
51030;SDS011;37058;41.442;23.240;2022-07-17T02:44:04;8.85;;;4.30;;
51030;SDS011;37058;41.442;23.240;2022-07-17T02:46:30;15.27;;;4.20;;
51030;SDS011;37058;41.442;23.240;2022-07-17T02:48:56;7.05;;;4.10;;
51030;SDS011;37058;41.442;23.240;2022-07-17T02:51:22;12.27;;;4.65;;
51030;SDS011;37058;41.442;23.240;2022-07-17T02:53:48;10.23;;;4.57;;
51030;SDS011;37058;41.442;23.240;2022-07-17T02:56:13;5.32;;;4.80;;
51030;SDS011;37058;41.442;23.240;2022-07-17T02:58:39;7.30;;;4.20;;
51030;SDS011;37058;41.442;23.240;2022-07-17T03:01:05;7.45;;;4.43;;
51030;SDS011;37058;41.442;23.240;2022-07-17T03:03:31;5.57;;;4.30;;
51030;SDS011;37058;41.442;23.240;2022-07-17T03:05:57;8.25;;;4.38;;
51030;SDS011;37058;41.442;23.240;2022-07-17T03:08:23;8.85;;;3.92;;
51030;SDS011;37058;41.442;23.240;2022-07-17T03:10:49;4.75;;;3.67;;
51030;SDS011;37058;41.442;23.240;2022-07-17T03:13:15;5.57;;;3.75;;
51030;SDS011;37058;41.442;23.240;2022-07-17T03:15:40;14.15;;;4.47;;
51030;SDS011;37058;41.442;23.240;2022-07-17T03:18:06;14.95;;;5.10;;
51030;SDS011;37058;41.442;23.240;2022-07-17T03:20:32;16.00;;;4.40;;
51030;SDS011;37058;41.442;23.240;2022-07-17T03:22:58;7.57;;;3.78;;
51030;SDS011;37058;41.442;23.240;2022-07-17T03:25:24;6.93;;;4.43;;
51030;SDS011;37058;41.442;23.240;2022-07-17T03:27:50;5.55;;;3.85;;
51030;SDS011;37058;41.442;23.240;2022-07-17T03:30:16;8.98;;;4.20;;
51030;SDS011;37058;41.442;23.240;2022-07-17T03:32:41;5.57;;;4.18;;
51030;SDS011;37058;41.442;23.240;2022-07-17T03:35:07;9.80;;;4.32;;
51030;SDS011;37058;41.442;23.240;2022-07-17T03:37:33;5.72;;;4.10;;
51030;SDS011;37058;41.442;23.240;2022-07-17T03:40:02;5.30;;;4.22;;
51030;SDS011;37058;41.442;23.240;2022-07-17T03:42:31;6.47;;;4.07;;
51030;SDS011;37058;41.442;23.240;2022-07-17T03:44:57;6.43;;;3.95;;
51030;SDS011;37058;41.442;23.240;2022-07-17T03:47:22;7.18;;;4.53;;
51030;SDS011;37058;41.442;23.240;2022-07-17T03:49:48;5.18;;;3.72;;
51030;SDS011;37058;41.442;23.240;2022-07-17T03:52:14;5.13;;;3.95;;
51030;SDS011;37058;41.442;23.240;2022-07-17T03:54:40;5.97;;;3.70;;
51030;SDS011;37058;41.442;23.240;2022-07-17T03:57:06;5.53;;;3.92;;
51030;SDS011;37058;41.442;23.240;2022-07-17T03:59:32;7.30;;;4.45;;
51030;SDS011;37058;41.442;23.240;2022-07-17T04:01:58;7.18;;;3.83;;
51030;SDS011;37058;41.442;23.240;2022-07-17T04:04:24;8.05;;;4.70;;
51030;SDS011;37058;41.442;23.240;2022-07-17T04:06:50;9.63;;;3.78;;
51030;SDS011;37058;41.442;23.240;2022-07-17T04:09:16;4.80;;;4.30;;
51030;SDS011;37058;41.442;23.240;2022-07-17T04:11:42;6.82;;;4.25;;
51030;SDS011;37058;41.442;23.240;2022-07-17T04:14:07;8.07;;;4.07;;
51030;SDS011;37058;41.442;23.240;2022-07-17T04:16:33;5.80;;;4.30;;
51030;SDS011;37058;41.442;23.240;2022-07-17T04:18:59;5.43;;;4.30;;
51030;SDS011;37058;41.442;23.240;2022-07-17T04:21:25;5.82;;;4.35;;
51030;SDS011;37058;41.442;23.240;2022-07-17T04:23:51;6.55;;;4.75;;
51030;SDS011;37058;41.442;23.240;2022-07-17T04:26:17;4.60;;;4.03;;
51030;SDS011;37058;41.442;23.240;2022-07-17T04:28:43;10.07;;;4.07;;
51030;SDS011;37058;41.442;23.240;2022-07-17T04:31:11;9.25;;;4.22;;
51030;SDS011;37058;41.442;23.240;2022-07-17T04:33:37;6.63;;;4.13;;
51030;SDS011;37058;41.442;23.240;2022-07-17T04:36:03;7.05;;;4.70;;
51030;SDS011;37058;41.442;23.240;2022-07-17T04:38:29;12.68;;;7.47;;
51030;SDS011;37058;41.442;23.240;2022-07-17T04:40:55;9.98;;;6.82;;
51030;SDS011;37058;41.442;23.240;2022-07-17T04:43:22;10.68;;;6.95;;
51030;SDS011;37058;41.442;23.240;2022-07-17T04:45:48;9.57;;;5.57;;
51030;SDS011;37058;41.442;23.240;2022-07-17T04:48:14;9.95;;;4.55;;
51030;SDS011;37058;41.442;23.240;2022-07-17T04:50:39;6.47;;;3.60;;
51030;SDS011;37058;41.442;23.240;2022-07-17T04:53:05;8.85;;;4.25;;
51030;SDS011;37058;41.442;23.240;2022-07-17T04:55:32;6.45;;;3.95;;
51030;SDS011;37058;41.442;23.240;2022-07-17T04:57:58;11.20;;;4.53;;
51030;SDS011;37058;41.442;23.240;2022-07-17T05:00:24;7.55;;;4.13;;
51030;SDS011;37058;41.442;23.240;2022-07-17T05:02:50;12.55;;;5.43;;
51030;SDS011;37058;41.442;23.240;2022-07-17T05:05:16;11.68;;;5.97;;
51030;SDS011;37058;41.442;23.240;2022-07-17T05:07:42;11.35;;;4.57;;
51030;SDS011;37058;41.442;23.240;2022-07-17T05:10:08;9.90;;;4.53;;
51030;SDS011;37058;41.442;23.240;2022-07-17T05:12:34;6.82;;;4.32;;
51030;SDS011;37058;41.442;23.240;2022-07-17T05:15:01;7.18;;;4.35;;
51030;SDS011;37058;41.442;23.240;2022-07-17T05:17:28;15.05;;;4.93;;
51030;SDS011;37058;41.442;23.240;2022-07-17T05:19:54;5.20;;;3.97;;
51030;SDS011;37058;41.442;23.240;2022-07-17T05:22:20;8.43;;;4.18;;
51030;SDS011;37058;41.442;23.240;2022-07-17T05:24:46;4.32;;;3.83;;
51030;SDS011;37058;41.442;23.240;2022-07-17T05:27:12;15.73;;;4.22;;
51030;SDS011;37058;41.442;23.240;2022-07-17T05:29:38;11.20;;;4.05;;
51030;SDS011;37058;41.442;23.240;2022-07-17T05:32:04;6.43;;;3.42;;
51030;SDS011;37058;41.442;23.240;2022-07-17T05:34:30;11.48;;;3.33;;
51030;SDS011;37058;41.442;23.240;2022-07-17T05:36:55;8.10;;;3.25;;
51030;SDS011;37058;41.442;23.240;2022-07-17T05:39:21;11.00;;;3.60;;
51030;SDS011;37058;41.442;23.240;2022-07-17T05:41:47;8.85;;;3.45;;
51030;SDS011;37058;41.442;23.240;2022-07-17T05:44:13;8.40;;;3.83;;
51030;SDS011;37058;41.442;23.240;2022-07-17T05:46:39;4.35;;;3.42;;
51030;SDS011;37058;41.442;23.240;2022-07-17T05:49:05;8.88;;;3.42;;
51030;SDS011;37058;41.442;23.240;2022-07-17T05:51:31;6.60;;;3.50;;
51030;SDS011;37058;41.442;23.240;2022-07-17T05:53:57;4.15;;;3.40;;
51030;SDS011;37058;41.442;23.240;2022-07-17T05:56:22;7.93;;;3.63;;
51030;SDS011;37058;41.442;23.240;2022-07-17T05:58:48;6.43;;;3.55;;
51030;SDS011;37058;41.442;23.240;2022-07-17T06:01:14;10.75;;;4.30;;
51030;SDS011;37058;41.442;23.240;2022-07-17T06:03:40;6.55;;;3.70;;
51030;SDS011;37058;41.442;23.240;2022-07-17T06:06:06;7.60;;;3.70;;
51030;SDS011;37058;41.442;23.240;2022-07-17T06:08:32;21.35;;;4.55;;
51030;SDS011;37058;41.442;23.240;2022-07-17T06:10:58;5.90;;;3.10;;
51030;SDS011;37058;41.442;23.240;2022-07-17T06:13:24;6.43;;;3.75;;
51030;SDS011;37058;41.442;23.240;2022-07-17T06:15:50;4.45;;;3.92;;
51030;SDS011;37058;41.442;23.240;2022-07-17T06:18:15;13.57;;;3.65;;
51030;SDS011;37058;41.442;23.240;2022-07-17T06:20:41;7.28;;;3.83;;
51030;SDS011;37058;41.442;23.240;2022-07-17T06:23:07;8.25;;;3.63;;
51030;SDS011;37058;41.442;23.240;2022-07-17T06:25:33;5.85;;;3.00;;
51030;SDS011;37058;41.442;23.240;2022-07-17T06:27:59;5.60;;;3.28;;
51030;SDS011;37058;41.442;23.240;2022-07-17T06:30:25;6.80;;;3.22;;
51030;SDS011;37058;41.442;23.240;2022-07-17T06:32:51;6.45;;;3.35;;
51030;SDS011;37058;41.442;23.240;2022-07-17T06:35:16;4.05;;;2.65;;
51030;SDS011;37058;41.442;23.240;2022-07-17T06:37:42;5.60;;;3.13;;
51030;SDS011;37058;41.442;23.240;2022-07-17T06:40:08;16.33;;;4.32;;
51030;SDS011;37058;41.442;23.240;2022-07-17T06:42:34;33.55;;;5.47;;
51030;SDS011;37058;41.442;23.240;2022-07-17T06:45:00;7.80;;;2.85;;
51030;SDS011;37058;41.442;23.240;2022-07-17T06:47:26;7.13;;;2.72;;
51030;SDS011;37058;41.442;23.240;2022-07-17T06:49:52;6.30;;;3.15;;
51030;SDS011;37058;41.442;23.240;2022-07-17T06:52:18;9.00;;;6.43;;
51030;SDS011;37058;41.442;23.240;2022-07-17T06:54:44;5.32;;;3.30;;
51030;SDS011;37058;41.442;23.240;2022-07-17T06:57:10;6.28;;;2.88;;
51030;SDS011;37058;41.442;23.240;2022-07-17T06:59:36;5.78;;;3.28;;
51030;SDS011;37058;41.442;23.240;2022-07-17T07:02:02;5.00;;;3.25;;
51030;SDS011;37058;41.442;23.240;2022-07-17T07:04:28;10.60;;;4.22;;
51030;SDS011;37058;41.442;23.240;2022-07-17T07:06:54;5.53;;;3.10;;
51030;SDS011;37058;41.442;23.240;2022-07-17T07:09:20;9.25;;;3.15;;
51030;SDS011;37058;41.442;23.240;2022-07-17T07:11:46;4.78;;;2.70;;
51030;SDS011;37058;41.442;23.240;2022-07-17T07:14:12;8.32;;;3.60;;
51030;SDS011;37058;41.442;23.240;2022-07-17T07:16:37;5.40;;;2.70;;
51030;SDS011;37058;41.442;23.240;2022-07-17T07:19:03;7.18;;;3.00;;
51030;SDS011;37058;41.442;23.240;2022-07-17T07:21:29;6.80;;;3.15;;
51030;SDS011;37058;41.442;23.240;2022-07-17T07:23:55;7.13;;;2.88;;
51030;SDS011;37058;41.442;23.240;2022-07-17T07:26:22;9.35;;;3.58;;
51030;SDS011;37058;41.442;23.240;2022-07-17T07:28:48;5.45;;;3.00;;
51030;SDS011;37058;41.442;23.240;2022-07-17T07:31:14;8.05;;;2.95;;
51030;SDS011;37058;41.442;23.240;2022-07-17T07:33:42;4.28;;;2.97;;
51030;SDS011;37058;41.442;23.240;2022-07-17T07:36:09;8.80;;;4.00;;
51030;SDS011;37058;41.442;23.240;2022-07-17T07:38:35;4.78;;;2.88;;
51030;SDS011;37058;41.442;23.240;2022-07-17T07:41:01;6.28;;;2.97;;
51030;SDS011;37058;41.442;23.240;2022-07-17T07:43:27;12.13;;;3.33;;
51030;SDS011;37058;41.442;23.240;2022-07-17T07:45:53;5.85;;;2.72;;
51030;SDS011;37058;41.442;23.240;2022-07-17T07:48:19;6.43;;;3.40;;
51030;SDS011;37058;41.442;23.240;2022-07-17T07:50:45;5.30;;;2.95;;
51030;SDS011;37058;41.442;23.240;2022-07-17T07:53:11;8.15;;;3.47;;
51030;SDS011;37058;41.442;23.240;2022-07-17T07:55:37;8.57;;;3.05;;
51030;SDS011;37058;41.442;23.240;2022-07-17T07:58:07;6.65;;;2.67;;
51030;SDS011;37058;41.442;23.240;2022-07-17T08:00:35;6.80;;;2.88;;
51030;SDS011;37058;41.442;23.240;2022-07-17T08:03:03;15.25;;;3.42;;
51030;SDS011;37058;41.442;23.240;2022-07-17T08:05:29;4.95;;;2.50;;
51030;SDS011;37058;41.442;23.240;2022-07-17T08:07:55;5.25;;;2.63;;
51030;SDS011;37058;41.442;23.240;2022-07-17T08:10:21;7.10;;;3.08;;
51030;SDS011;37058;41.442;23.240;2022-07-17T08:12:47;8.23;;;2.35;;
51030;SDS011;37058;41.442;23.240;2022-07-17T08:15:14;5.68;;;2.70;;
51030;SDS011;37058;41.442;23.240;2022-07-17T08:17:43;9.50;;;3.53;;
51030;SDS011;37058;41.442;23.240;2022-07-17T08:20:10;5.20;;;2.50;;
51030;SDS011;37058;41.442;23.240;2022-07-17T08:22:36;8.40;;;3.20;;
51030;SDS011;37058;41.442;23.240;2022-07-17T08:25:03;4.65;;;2.58;;
51030;SDS011;37058;41.442;23.240;2022-07-17T08:27:34;5.65;;;2.60;;
51030;SDS011;37058;41.442;23.240;2022-07-17T08:30:02;5.68;;;2.67;;
51030;SDS011;37058;41.442;23.240;2022-07-17T08:32:30;7.50;;;4.20;;
51030;SDS011;37058;41.442;23.240;2022-07-17T08:34:56;6.80;;;2.72;;
51030;SDS011;37058;41.442;23.240;2022-07-17T08:37:22;4.45;;;2.50;;
51030;SDS011;37058;41.442;23.240;2022-07-17T08:39:49;9.15;;;3.08;;
51030;SDS011;37058;41.442;23.240;2022-07-17T08:42:16;3.75;;;2.65;;
51030;SDS011;37058;41.442;23.240;2022-07-17T08:44:42;4.38;;;2.63;;
51030;SDS011;37058;41.442;23.240;2022-07-17T08:47:10;5.38;;;2.50;;
51030;SDS011;37058;41.442;23.240;2022-07-17T08:49:40;5.78;;;3.00;;
51030;SDS011;37058;41.442;23.240;2022-07-17T08:52:13;6.57;;;2.97;;
51030;SDS011;37058;41.442;23.240;2022-07-17T08:54:40;4.15;;;2.47;;
51030;SDS011;37058;41.442;23.240;2022-07-17T08:57:07;5.88;;;2.47;;
51030;SDS011;37058;41.442;23.240;2022-07-17T08:59:34;5.72;;;2.67;;
51030;SDS011;37058;41.442;23.240;2022-07-17T09:02:00;8.50;;;2.88;;
51030;SDS011;37058;41.442;23.240;2022-07-17T09:04:28;6.70;;;3.15;;
51030;SDS011;37058;41.442;23.240;2022-07-17T09:07:01;6.15;;;3.05;;
51030;SDS011;37058;41.442;23.240;2022-07-17T09:09:29;5.38;;;2.63;;
51030;SDS011;37058;41.442;23.240;2022-07-17T09:14:36;6.22;;;2.95;;
51030;SDS011;37058;41.442;23.240;2022-07-17T09:17:05;6.07;;;2.70;;
51030;SDS011;37058;41.442;23.240;2022-07-17T09:19:34;9.23;;;2.95;;
51030;SDS011;37058;41.442;23.240;2022-07-17T09:22:11;5.78;;;2.95;;
51030;SDS011;37058;41.442;23.240;2022-07-17T09:24:53;4.85;;;2.97;;
51030;SDS011;37058;41.442;23.240;2022-07-17T09:30:02;5.25;;;2.50;;
51030;SDS011;37058;41.442;23.240;2022-07-17T09:32:37;13.10;;;3.00;;
51030;SDS011;37058;41.442;23.240;2022-07-17T09:35:07;4.00;;;2.30;;
51030;SDS011;37058;41.442;23.240;2022-07-17T09:37:35;7.50;;;3.00;;
51030;SDS011;37058;41.442;23.240;2022-07-17T09:40:08;10.27;;;3.20;;
51030;SDS011;37058;41.442;23.240;2022-07-17T09:42:36;26.10;;;3.85;;
51030;SDS011;37058;41.442;23.240;2022-07-17T09:45:06;8.65;;;2.95;;
51030;SDS011;37058;41.442;23.240;2022-07-17T09:47:35;7.15;;;2.70;;
51030;SDS011;37058;41.442;23.240;2022-07-17T09:50:04;5.47;;;2.67;;
51030;SDS011;37058;41.442;23.240;2022-07-17T09:52:33;7.00;;;2.67;;
51030;SDS011;37058;41.442;23.240;2022-07-17T09:55:03;5.93;;;3.15;;
51030;SDS011;37058;41.442;23.240;2022-07-17T09:57:31;5.35;;;2.55;;
51030;SDS011;37058;41.442;23.240;2022-07-17T10:00:06;26.75;;;5.35;;
51030;SDS011;37058;41.442;23.240;2022-07-17T10:02:43;5.80;;;2.70;;
51030;SDS011;37058;41.442;23.240;2022-07-17T10:05:12;12.25;;;3.75;;
51030;SDS011;37058;41.442;23.240;2022-07-17T10:07:43;6.97;;;3.00;;
51030;SDS011;37058;41.442;23.240;2022-07-17T10:10:13;6.93;;;3.13;;
51030;SDS011;37058;41.442;23.240;2022-07-17T10:15:09;5.17;;;2.77;;
51030;SDS011;37058;41.442;23.240;2022-07-17T10:17:35;4.88;;;2.70;;
51030;SDS011;37058;41.442;23.240;2022-07-17T10:20:02;11.60;;;3.53;;
51030;SDS011;37058;41.442;23.240;2022-07-17T10:22:40;4.37;;;2.67;;
51030;SDS011;37058;41.442;23.240;2022-07-17T10:27:45;5.70;;;2.58;;
51030;SDS011;37058;41.442;23.240;2022-07-17T10:30:19;4.80;;;2.85;;
51030;SDS011;37058;41.442;23.240;2022-07-17T10:32:53;5.13;;;2.55;;
51030;SDS011;37058;41.442;23.240;2022-07-17T10:35:40;3.95;;;2.70;;
51030;SDS011;37058;41.442;23.240;2022-07-17T10:38:14;3.00;;;2.08;;
51030;SDS011;37058;41.442;23.240;2022-07-17T10:40:41;7.93;;;2.92;;
51030;SDS011;37058;41.442;23.240;2022-07-17T10:43:07;5.35;;;2.65;;
51030;SDS011;37058;41.442;23.240;2022-07-17T10:45:38;7.47;;;2.78;;
51030;SDS011;37058;41.442;23.240;2022-07-17T10:56:05;9.15;;;2.38;;
51030;SDS011;37058;41.442;23.240;2022-07-17T11:01:14;4.68;;;2.20;;
51030;SDS011;37058;41.442;23.240;2022-07-17T11:03:55;4.00;;;1.80;;
51030;SDS011;37058;41.442;23.240;2022-07-17T11:06:36;5.18;;;1.73;;
51030;SDS011;37058;41.442;23.240;2022-07-17T11:09:04;3.58;;;1.90;;
51030;SDS011;37058;41.442;23.240;2022-07-17T11:11:40;6.93;;;2.38;;
51030;SDS011;37058;41.442;23.240;2022-07-17T11:16:56;5.57;;;2.42;;
51030;SDS011;37058;41.442;23.240;2022-07-17T11:19:29;4.68;;;1.67;;
51030;SDS011;37058;41.442;23.240;2022-07-17T11:21:57;3.28;;;1.88;;
51030;SDS011;37058;41.442;23.240;2022-07-17T11:24:46;2.85;;;1.65;;
51030;SDS011;37058;41.442;23.240;2022-07-17T11:29:53;5.10;;;2.00;;
51030;SDS011;37058;41.442;23.240;2022-07-17T11:32:22;4.10;;;1.90;;
51030;SDS011;37058;41.442;23.240;2022-07-17T11:34:50;3.88;;;1.80;;
51030;SDS011;37058;41.442;23.240;2022-07-17T11:37:16;7.70;;;2.28;;
51030;SDS011;37058;41.442;23.240;2022-07-17T11:39:47;4.85;;;1.88;;
51030;SDS011;37058;41.442;23.240;2022-07-17T11:42:16;10.20;;;2.10;;
51030;SDS011;37058;41.442;23.240;2022-07-17T11:44:45;3.90;;;1.65;;
51030;SDS011;37058;41.442;23.240;2022-07-17T11:47:22;6.38;;;2.22;;
51030;SDS011;37058;41.442;23.240;2022-07-17T11:49:51;2.78;;;1.98;;
51030;SDS011;37058;41.442;23.240;2022-07-17T11:52:39;4.35;;;1.88;;
51030;SDS011;37058;41.442;23.240;2022-07-17T11:55:08;3.67;;;1.85;;
51030;SDS011;37058;41.442;23.240;2022-07-17T11:57:41;3.80;;;1.92;;
51030;SDS011;37058;41.442;23.240;2022-07-17T12:00:13;7.10;;;2.10;;
51030;SDS011;37058;41.442;23.240;2022-07-17T12:02:41;3.58;;;2.10;;
51030;SDS011;37058;41.442;23.240;2022-07-17T12:05:08;2.65;;;1.63;;
51030;SDS011;37058;41.442;23.240;2022-07-17T12:07:39;4.03;;;1.60;;
51030;SDS011;37058;41.442;23.240;2022-07-17T12:15:36;2.80;;;1.92;;
51030;SDS011;37058;41.442;23.240;2022-07-17T12:18:19;2.88;;;2.25;;
51030;SDS011;37058;41.442;23.240;2022-07-17T12:20:51;3.75;;;1.80;;
51030;SDS011;37058;41.442;23.240;2022-07-17T12:23:30;5.13;;;2.38;;
51030;SDS011;37058;41.442;23.240;2022-07-17T12:26:05;2.65;;;1.50;;
51030;SDS011;37058;41.442;23.240;2022-07-17T12:28:41;2.33;;;1.80;;
51030;SDS011;37058;41.442;23.240;2022-07-17T12:31:08;4.50;;;2.10;;
51030;SDS011;37058;41.442;23.240;2022-07-17T12:33:37;6.47;;;2.28;;
51030;SDS011;37058;41.442;23.240;2022-07-17T12:36:03;5.95;;;1.60;;
51030;SDS011;37058;41.442;23.240;2022-07-17T12:38:29;4.63;;;1.98;;
51030;SDS011;37058;41.442;23.240;2022-07-17T12:40:55;5.15;;;1.80;;
51030;SDS011;37058;41.442;23.240;2022-07-17T12:43:22;5.35;;;1.70;;
51030;SDS011;37058;41.442;23.240;2022-07-17T12:45:51;2.83;;;1.73;;
51030;SDS011;37058;41.442;23.240;2022-07-17T12:48:17;5.30;;;1.70;;
51030;SDS011;37058;41.442;23.240;2022-07-17T12:50:43;5.60;;;2.17;;
51030;SDS011;37058;41.442;23.240;2022-07-17T12:53:10;6.03;;;1.70;;
51030;SDS011;37058;41.442;23.240;2022-07-17T12:55:36;3.00;;;1.73;;
51030;SDS011;37058;41.442;23.240;2022-07-17T12:58:02;5.20;;;1.95;;
51030;SDS011;37058;41.442;23.240;2022-07-17T13:00:29;3.42;;;1.52;;
51030;SDS011;37058;41.442;23.240;2022-07-17T13:02:55;4.90;;;1.80;;
51030;SDS011;37058;41.442;23.240;2022-07-17T13:05:21;7.38;;;1.80;;
51030;SDS011;37058;41.442;23.240;2022-07-17T13:07:48;2.45;;;1.80;;
51030;SDS011;37058;41.442;23.240;2022-07-17T13:10:14;3.83;;;1.70;;
51030;SDS011;37058;41.442;23.240;2022-07-17T13:12:41;3.45;;;1.95;;
51030;SDS011;37058;41.442;23.240;2022-07-17T13:15:07;9.60;;;2.17;;
51030;SDS011;37058;41.442;23.240;2022-07-17T13:17:34;7.95;;;2.40;;
51030;SDS011;37058;41.442;23.240;2022-07-17T13:20:01;4.80;;;1.92;;
51030;SDS011;37058;41.442;23.240;2022-07-17T13:22:29;3.70;;;1.70;;
51030;SDS011;37058;41.442;23.240;2022-07-17T13:24:55;6.22;;;1.95;;
51030;SDS011;37058;41.442;23.240;2022-07-17T13:27:21;4.88;;;1.52;;
51030;SDS011;37058;41.442;23.240;2022-07-17T13:29:47;6.20;;;1.75;;
51030;SDS011;37058;41.442;23.240;2022-07-17T13:32:13;6.45;;;2.10;;
51030;SDS011;37058;41.442;23.240;2022-07-17T13:34:39;2.72;;;1.50;;
51030;SDS011;37058;41.442;23.240;2022-07-17T13:37:05;6.20;;;1.70;;
51030;SDS011;37058;41.442;23.240;2022-07-17T13:39:33;5.47;;;1.90;;
51030;SDS011;37058;41.442;23.240;2022-07-17T13:42:00;7.20;;;2.22;;
51030;SDS011;37058;41.442;23.240;2022-07-17T13:44:26;6.25;;;2.10;;
51030;SDS011;37058;41.442;23.240;2022-07-17T13:46:52;2.97;;;1.60;;
51030;SDS011;37058;41.442;23.240;2022-07-17T13:49:18;2.42;;;1.63;;
51030;SDS011;37058;41.442;23.240;2022-07-17T13:51:45;3.00;;;1.77;;
51030;SDS011;37058;41.442;23.240;2022-07-17T13:54:11;5.43;;;1.90;;
51030;SDS011;37058;41.442;23.240;2022-07-17T13:56:37;3.90;;;1.50;;
51030;SDS011;37058;41.442;23.240;2022-07-17T13:59:03;3.60;;;2.20;;
51030;SDS011;37058;41.442;23.240;2022-07-17T14:01:29;4.55;;;1.67;;
51030;SDS011;37058;41.442;23.240;2022-07-17T14:03:55;3.90;;;1.83;;
51030;SDS011;37058;41.442;23.240;2022-07-17T14:06:22;5.18;;;2.00;;
51030;SDS011;37058;41.442;23.240;2022-07-17T14:08:48;2.80;;;1.52;;
51030;SDS011;37058;41.442;23.240;2022-07-17T14:11:14;9.27;;;1.63;;
51030;SDS011;37058;41.442;23.240;2022-07-17T14:13:40;4.07;;;1.70;;
51030;SDS011;37058;41.442;23.240;2022-07-17T14:16:06;3.88;;;1.80;;
51030;SDS011;37058;41.442;23.240;2022-07-17T14:18:32;6.30;;;1.73;;
51030;SDS011;37058;41.442;23.240;2022-07-17T14:20:59;4.10;;;2.25;;
51030;SDS011;37058;41.442;23.240;2022-07-17T14:23:25;5.22;;;1.98;;
51030;SDS011;37058;41.442;23.240;2022-07-17T14:25:51;3.65;;;2.03;;
51030;SDS011;37058;41.442;23.240;2022-07-17T14:28:17;4.07;;;1.60;;
51030;SDS011;37058;41.442;23.240;2022-07-17T14:30:43;5.53;;;2.47;;
51030;SDS011;37058;41.442;23.240;2022-07-17T14:33:09;2.88;;;1.58;;
51030;SDS011;37058;41.442;23.240;2022-07-17T14:35:35;6.28;;;2.25;;
51030;SDS011;37058;41.442;23.240;2022-07-17T14:38:02;3.58;;;1.67;;
51030;SDS011;37058;41.442;23.240;2022-07-17T14:40:31;6.55;;;2.10;;
51030;SDS011;37058;41.442;23.240;2022-07-17T14:42:57;4.18;;;1.70;;
51030;SDS011;37058;41.442;23.240;2022-07-17T14:45:23;4.43;;;1.63;;
51030;SDS011;37058;41.442;23.240;2022-07-17T14:47:49;3.38;;;1.55;;
51030;SDS011;37058;41.442;23.240;2022-07-17T14:50:16;3.70;;;1.80;;
51030;SDS011;37058;41.442;23.240;2022-07-17T14:52:41;5.30;;;1.77;;
51030;SDS011;37058;41.442;23.240;2022-07-17T14:55:08;3.28;;;1.90;;
51030;SDS011;37058;41.442;23.240;2022-07-17T14:57:34;3.50;;;1.77;;
51030;SDS011;37058;41.442;23.240;2022-07-17T15:00:00;7.18;;;2.28;;
51030;SDS011;37058;41.442;23.240;2022-07-17T15:02:26;5.20;;;2.10;;
51030;SDS011;37058;41.442;23.240;2022-07-17T15:04:52;5.60;;;1.95;;